Time;durP1;ratioP1;P1;durP2;ratioP2;P2;SDS_P1;SDS_P2;PMS_P1;PMS_P2;Temp;Humidity;BMP_temperature;BMP_pressure;BME280_temperature;BME280_humidity;BME280_pressure;Samples;Min_cycle;Max_cycle;Signal;HPM_P1;HPM_P2
2021/12/26 00:01:28;;;;;;;13.02;8.55;;;;;;;;;;4888462;29;20488;-79
2021/12/26 00:03:56;;;;;;;15.68;8.43;;;;;;;;;;4876592;29;20623;-79
2021/12/26 00:06:45;;;;;;;10.88;7.32;;;;;;;;;;4888120;29;20037;-79
2021/12/26 00:09:11;;;;;;;11.65;8.40;;;;;;;;;;4891919;29;20472;-79
2021/12/26 00:11:58;;;;;;;14.77;8.80;;;;;;;;;;4872898;29;20037;-79
2021/12/26 00:14:24;;;;;;;16.55;9.20;;;;;;;;;;4885214;29;20427;-80
2021/12/26 00:16:53;;;;;;;21.95;10.20;;;;;;;;;;4887892;29;20440;-79
2021/12/26 00:19:22;;;;;;;15.32;9.93;;;;;;;;;;4891131;29;20069;-79
2021/12/26 00:21:48;;;;;;;17.23;10.63;;;;;;;;;;4890468;29;20060;-80
2021/12/26 00:24:15;;;;;;;18.05;10.68;;;;;;;;;;4893324;29;20077;-79
2021/12/26 00:26:50;;;;;;;20.65;10.85;;;;;;;;;;4894332;29;20043;-80
2021/12/26 00:29:18;;;;;;;12.20;7.18;;;;;;;;;;4891633;29;20080;-82
2021/12/26 00:31:44;;;;;;;14.20;7.50;;;;;;;;;;4873369;29;20104;-80
2021/12/26 00:34:13;;;;;;;8.63;5.75;;;;;;;;;;4895652;29;20036;-79
2021/12/26 00:36:47;;;;;;;8.85;6.00;;;;;;;;;;4896245;29;20044;-79
2021/12/26 00:39:17;;;;;;;9.98;5.90;;;;;;;;;;4895194;29;20048;-80
2021/12/26 00:41:50;;;;;;;12.70;6.57;;;;;;;;;;4895760;29;20056;-80
2021/12/26 00:44:22;;;;;;;13.15;6.53;;;;;;;;;;4890510;29;20068;-80
2021/12/26 00:47:02;;;;;;;12.13;6.20;;;;;;;;;;4883622;29;20041;-80
2021/12/26 00:49:29;;;;;;;10.02;5.95;;;;;;;;;;4893012;29;20033;-81
2021/12/26 00:51:56;;;;;;;10.88;6.15;;;;;;;;;;4892985;29;20115;-79
2021/12/26 00:54:26;;;;;;;13.15;7.20;;;;;;;;;;4898007;29;20060;-81
2021/12/26 00:57:12;;;;;;;16.42;7.68;;;;;;;;;;4859011;29;20029;-80
2021/12/26 00:59:39;;;;;;;13.45;6.45;;;;;;;;;;4856675;29;20045;-80
2021/12/26 01:02:06;;;;;;;9.00;5.43;;;;;;;;;;4857794;29;20042;-81
2021/12/26 01:04:34;;;;;;;6.60;4.15;;;;;;;;;;4868302;29;20098;-80
2021/12/26 01:07:10;;;;;;;4.43;2.88;;;;;;;;;;4855130;29;20029;-81
2021/12/26 01:09:38;;;;;;;8.23;5.60;;;;;;;;;;4832330;29;20065;-80
2021/12/26 01:12:12;;;;;;;11.48;7.10;;;;;;;;;;4871301;29;20018;-80
2021/12/26 01:14:48;;;;;;;12.60;7.53;;;;;;;;;;4857344;29;20041;-79
2021/12/26 01:17:28;;;;;;;11.45;7.60;;;;;;;;;;4867852;29;20105;-80
2021/12/26 01:19:55;;;;;;;14.82;9.50;;;;;;;;;;4861207;29;20040;-80
2021/12/26 01:22:27;;;;;;;17.75;12.05;;;;;;;;;;4860099;29;20105;-80
2021/12/26 01:24:56;;;;;;;18.63;13.23;;;;;;;;;;4859230;29;20223;-80
2021/12/26 01:27:28;;;;;;;18.52;14.00;;;;;;;;;;4867610;29;20043;-80
2021/12/26 01:29:59;;;;;;;26.08;16.83;;;;;;;;;;4897085;29;20029;-79
2021/12/26 01:32:27;;;;;;;27.33;18.60;;;;;;;;;;4880646;29;20105;-80
2021/12/26 01:34:57;;;;;;;33.63;20.42;;;;;;;;;;4878077;29;20041;-79
2021/12/26 01:37:23;;;;;;;30.85;20.13;;;;;;;;;;4867510;29;20041;-78
2021/12/26 01:39:50;;;;;;;30.15;20.15;;;;;;;;;;4886652;29;20627;-79
2021/12/26 01:42:18;;;;;;;30.65;20.05;;;;;;;;;;4867450;29;20036;-77
2021/12/26 01:44:45;;;;;;;32.88;23.60;;;;;;;;;;4888351;29;20089;-77
2021/12/26 01:47:14;;;;;;;29.58;20.45;;;;;;;;;;4887371;29;20025;-78
2021/12/26 01:49:42;;;;;;;34.65;22.05;;;;;;;;;;4885910;29;20033;-78
2021/12/26 01:52:15;;;;;;;28.92;20.92;;;;;;;;;;4890120;29;20065;-78
2021/12/26 01:55:11;;;;;;;31.38;23.13;;;;;;;;;;4894874;29;20037;-77
2021/12/26 01:57:39;;;;;;;45.72;25.25;;;;;;;;;;4895146;29;20096;-79
2021/12/26 02:00:07;;;;;;;39.45;24.95;;;;;;;;;;4893477;29;20033;-77
2021/12/26 02:02:33;;;;;;;36.03;23.73;;;;;;;;;;4893371;29;20104;-79
2021/12/26 02:05:07;;;;;;;37.30;24.85;;;;;;;;;;4896880;29;20037;-78
2021/12/26 02:07:35;;;;;;;35.70;25.05;;;;;;;;;;4893598;29;20054;-78
2021/12/26 02:10:19;;;;;;;36.83;25.95;;;;;;;;;;4898557;29;20021;-79
2021/12/26 02:12:45;;;;;;;39.80;27.20;;;;;;;;;;4871083;29;20029;-78
2021/12/26 02:15:16;;;;;;;39.20;27.27;;;;;;;;;;4898759;29;20041;-80
2021/12/26 02:17:51;;;;;;;49.72;30.60;;;;;;;;;;4893467;29;20037;-78
2021/12/26 02:20:18;;;;;;;35.22;25.88;;;;;;;;;;4896520;29;20050;-78
2021/12/26 02:22:49;;;;;;;37.10;25.55;;;;;;;;;;4876673;29;20782;-79
2021/12/26 02:28:09;;;;;;;39.72;27.20;;;;;;;;;;4886531;29;20422;-78
2021/12/26 02:30:45;;;;;;;44.95;29.38;;;;;;;;;;4892756;29;20032;-79
2021/12/26 02:33:12;;;;;;;42.47;28.65;;;;;;;;;;4876194;29;20048;-78
2021/12/26 02:35:43;;;;;;;46.70;30.45;;;;;;;;;;4896052;29;20059;-79
2021/12/26 02:38:10;;;;;;;63.17;30.30;;;;;;;;;;4877117;29;20048;-79
2021/12/26 02:40:48;;;;;;;83.97;37.00;;;;;;;;;;4901956;29;20044;-78
2021/12/26 02:43:18;;;;;;;86.68;34.05;;;;;;;;;;4896933;29;20507;-78
2021/12/26 02:45:56;;;;;;;112.72;35.83;;;;;;;;;;4865187;29;20053;-79
2021/12/26 02:48:30;;;;;;;168.95;35.22;;;;;;;;;;4878729;29;20522;-78
2021/12/26 02:50:57;;;;;;;166.10;35.92;;;;;;;;;;4892090;29;20040;-79
2021/12/26 02:53:29;;;;;;;232.25;39.78;;;;;;;;;;4894585;29;20058;-78
2021/12/26 02:56:00;;;;;;;901.88;50.92;;;;;;;;;;4897446;29;20063;-78
2021/12/26 02:58:26;;;;;;;477.35;38.83;;;;;;;;;;4893899;29;20021;-78
2021/12/26 03:01:05;;;;;;;577.92;41.88;;;;;;;;;;4893882;29;20037;-78
2021/12/26 03:03:38;;;;;;;445.13;37.45;;;;;;;;;;4895330;29;20098;-78
2021/12/26 03:06:19;;;;;;;914.20;46.70;;;;;;;;;;4895236;29;20039;-79
2021/12/26 03:08:48;;;;;;;423.15;39.50;;;;;;;;;;4901011;29;20057;-80
2021/12/26 03:11:33;;;;;;;548.67;37.45;;;;;;;;;;4895193;29;20112;-79
2021/12/26 03:14:02;;;;;;;1140.70;59.25;;;;;;;;;;4878147;29;20186;-78
2021/12/26 03:16:28;;;;;;;964.67;52.35;;;;;;;;;;4894941;29;20041;-79
2021/12/26 03:19:07;;;;;;;956.28;49.47;;;;;;;;;;4883402;29;20024;-79
2021/12/26 03:21:34;;;;;;;778.95;45.83;;;;;;;;;;4858150;29;20042;-78
2021/12/26 03:24:01;;;;;;;662.30;43.20;;;;;;;;;;4886032;29;20115;-78
2021/12/26 03:26:29;;;;;;;569.70;34.55;;;;;;;;;;4894608;29;20032;-78
2021/12/26 03:28:55;;;;;;;467.38;32.38;;;;;;;;;;4875167;29;20032;-79
2021/12/26 03:31:21;;;;;;;368.98;30.25;;;;;;;;;;4895003;29;20033;-78
2021/12/26 03:33:48;;;;;;;425.67;32.78;;;;;;;;;;4895077;29;20020;-78
2021/12/26 03:36:23;;;;;;;595.38;39.80;;;;;;;;;;4906412;29;20013;-78
2021/12/26 03:38:49;;;;;;;562.28;37.97;;;;;;;;;;4890125;29;20037;-79
2021/12/26 03:41:17;;;;;;;466.95;31.92;;;;;;;;;;4906358;29;20020;-78
2021/12/26 03:43:46;;;;;;;702.38;37.55;;;;;;;;;;4887447;29;20081;-78
2021/12/26 03:46:12;;;;;;;486.77;28.17;;;;;;;;;;4889231;29;20039;-79
2021/12/26 03:48:54;;;;;;;309.15;21.67;;;;;;;;;;4895064;29;20482;-78
2021/12/26 03:51:24;;;;;;;81.15;19.83;;;;;;;;;;4886202;29;20041;-78
2021/12/26 03:53:52;;;;;;;36.92;20.92;;;;;;;;;;4890060;29;20029;-78
2021/12/26 03:56:19;;;;;;;36.60;15.50;;;;;;;;;;4884949;29;20037;-78
2021/12/26 03:58:58;;;;;;;40.20;17.20;;;;;;;;;;4887780;29;20041;-78
2021/12/26 04:01:24;;;;;;;32.30;15.43;;;;;;;;;;4871944;29;20021;-77
2021/12/26 04:03:51;;;;;;;29.77;15.40;;;;;;;;;;4893600;29;20001;-78
2021/12/26 04:06:18;;;;;;;33.97;16.60;;;;;;;;;;4894389;29;20052;-77
2021/12/26 04:08:44;;;;;;;29.92;16.42;;;;;;;;;;4874906;29;20029;-77
2021/12/26 04:11:12;;;;;;;26.83;16.75;;;;;;;;;;4897183;29;20035;-78
2021/12/26 04:13:39;;;;;;;23.55;14.15;;;;;;;;;;4896785;29;20029;-78
2021/12/26 04:16:06;;;;;;;22.10;14.05;;;;;;;;;;4880143;29;20053;-78
2021/12/26 04:18:33;;;;;;;20.30;14.07;;;;;;;;;;4898611;29;20051;-77
2021/12/26 04:21:19;;;;;;;20.70;14.48;;;;;;;;;;4894972;29;20041;-77
2021/12/26 04:23:46;;;;;;;21.63;13.07;;;;;;;;;;4895723;29;20498;-79
2021/12/26 04:26:12;;;;;;;19.05;11.68;;;;;;;;;;4878793;29;20060;-78
2021/12/26 04:28:44;;;;;;;21.70;14.13;;;;;;;;;;4875741;29;20061;-78
2021/12/26 04:31:15;;;;;;;24.58;14.75;;;;;;;;;;4894549;29;20061;-78
2021/12/26 04:33:51;;;;;;;23.45;14.40;;;;;;;;;;4888881;29;20029;-78
2021/12/26 04:36:23;;;;;;;20.25;12.68;;;;;;;;;;4874827;29;20056;-79
2021/12/26 04:38:56;;;;;;;17.67;10.13;;;;;;;;;;4896952;29;20052;-79
2021/12/26 04:41:36;;;;;;;25.92;13.77;;;;;;;;;;4905321;29;20041;-78
2021/12/26 04:44:29;;;;;;;27.77;15.43;;;;;;;;;;4866996;29;20072;-79
2021/12/26 04:46:55;;;;;;;21.35;15.00;;;;;;;;;;4834764;29;20113;-78
2021/12/26 04:49:32;;;;;;;25.00;14.02;;;;;;;;;;4824312;29;20125;-78
2021/12/26 04:52:00;;;;;;;25.35;14.82;;;;;;;;;;4835573;29;20184;-78
2021/12/26 04:54:39;;;;;;;22.00;13.73;;;;;;;;;;4838055;29;20046;-78
2021/12/26 04:57:10;;;;;;;22.38;13.23;;;;;;;;;;4838616;29;20042;-78
2021/12/26 04:59:37;;;;;;;21.05;12.82;;;;;;;;;;4836191;29;20049;-78
2021/12/26 05:02:10;;;;;;;25.92;14.82;;;;;;;;;;4818728;29;20042;-79
2021/12/26 05:04:58;;;;;;;25.67;14.93;;;;;;;;;;4832691;29;20133;-78
2021/12/26 05:07:26;;;;;;;28.02;15.25;;;;;;;;;;4843115;29;20030;-78
2021/12/26 05:10:02;;;;;;;25.42;14.73;;;;;;;;;;4838179;29;20042;-79
2021/12/26 05:12:36;;;;;;;25.95;14.25;;;;;;;;;;4839632;29;20038;-78
2021/12/26 05:15:25;;;;;;;22.38;13.45;;;;;;;;;;4852205;29;20037;-80
2021/12/26 05:17:51;;;;;;;21.25;13.27;;;;;;;;;;4882553;29;20044;-78
2021/12/26 05:20:20;;;;;;;23.15;13.88;;;;;;;;;;4897208;29;20028;-78
2021/12/26 05:22:48;;;;;;;23.75;14.40;;;;;;;;;;4891449;29;20040;-78
2021/12/26 05:25:37;;;;;;;22.27;15.05;;;;;;;;;;4878040;29;20033;-78
2021/12/26 05:28:22;;;;;;;23.40;14.27;;;;;;;;;;4890546;29;20070;-78
2021/12/26 05:30:50;;;;;;;20.08;12.50;;;;;;;;;;4878469;29;20081;-78
2021/12/26 05:33:17;;;;;;;19.67;12.85;;;;;;;;;;4889389;29;20459;-78
2021/12/26 05:35:43;;;;;;;15.82;9.18;;;;;;;;;;4894569;29;20048;-78
2021/12/26 05:38:12;;;;;;;23.20;13.43;;;;;;;;;;4878217;29;20040;-78
2021/12/26 05:40:40;;;;;;;23.40;15.20;;;;;;;;;;4890665;29;20059;-78
2021/12/26 05:43:13;;;;;;;21.15;13.48;;;;;;;;;;4894075;29;20090;-78
2021/12/26 05:45:40;;;;;;;18.58;13.23;;;;;;;;;;4894466;29;20045;-78
2021/12/26 05:48:09;;;;;;;18.25;13.43;;;;;;;;;;4894481;29;20045;-78
2021/12/26 05:50:47;;;;;;;18.30;13.52;;;;;;;;;;4892618;29;20551;-78
2021/12/26 05:53:23;;;;;;;15.48;12.35;;;;;;;;;;4894151;29;20068;-78
2021/12/26 05:55:51;;;;;;;15.40;11.88;;;;;;;;;;4894724;29;20088;-79
2021/12/26 05:58:26;;;;;;;15.93;11.43;;;;;;;;;;4894271;29;20040;-79
2021/12/26 06:00:53;;;;;;;17.88;11.75;;;;;;;;;;4902263;29;20017;-78
2021/12/26 06:03:20;;;;;;;13.48;10.95;;;;;;;;;;4902972;29;20056;-78
2021/12/26 06:05:49;;;;;;;14.90;11.38;;;;;;;;;;4886392;29;20053;-78
2021/12/26 06:08:17;;;;;;;16.30;11.73;;;;;;;;;;4887599;29;20041;-79
2021/12/26 06:10:44;;;;;;;15.45;12.10;;;;;;;;;;4886606;29;20029;-79
2021/12/26 06:13:20;;;;;;;16.33;12.68;;;;;;;;;;4897479;29;20120;-78
2021/12/26 06:15:50;;;;;;;16.80;12.65;;;;;;;;;;4893933;29;20543;-78
2021/12/26 06:18:18;;;;;;;17.35;12.10;;;;;;;;;;4894747;29;20431;-79
2021/12/26 06:20:44;;;;;;;16.63;13.50;;;;;;;;;;4890494;29;20444;-79
2021/12/26 06:23:13;;;;;;;17.55;11.77;;;;;;;;;;4878445;29;20036;-79
2021/12/26 06:25:43;;;;;;;16.27;11.88;;;;;;;;;;4895345;29;20040;-79
2021/12/26 06:28:26;;;;;;;11.73;9.38;;;;;;;;;;4885365;29;20061;-79
2021/12/26 06:30:52;;;;;;;13.23;9.80;;;;;;;;;;4870099;29;20041;-78
2021/12/26 06:33:20;;;;;;;12.75;9.68;;;;;;;;;;4872995;29;20456;-78
2021/12/26 06:35:46;;;;;;;14.40;10.77;;;;;;;;;;4892571;29;20092;-79
2021/12/26 06:38:23;;;;;;;15.57;11.63;;;52.10;2227.20;;;;;;4894985;29;20021;-78
2021/12/26 06:41:12;;;;;;;14.18;11.15;;;51.90;2227.20;;;;;;4877647;29;20041;-77
2021/12/26 06:43:39;;;;;;;14.88;11.68;;;;;;;;;;4891105;29;20055;-75
2021/12/26 06:46:15;;;;;;;16.30;12.00;;;;;;;;;;4894869;29;20016;-78
2021/12/26 06:48:51;;;;;;;17.75;12.68;;;;;;;;;;4896237;29;20106;-79
2021/12/26 06:51:19;;;;;;;14.35;12.10;;;51.80;2227.20;;;;;;4894921;29;20065;-77
2021/12/26 06:54:15;;;;;;;13.88;10.65;;;51.70;2227.20;;;;;;4877019;29;20028;-79
2021/12/26 06:56:47;;;;;;;11.48;9.38;;;51.70;2227.20;;;;;;4887219;29;20031;-78
2021/12/26 06:59:13;;;;;;;12.32;10.27;;;51.70;2227.20;;;;;;4871938;29;20116;-78
2021/12/26 07:02:18;;;;;;;13.88;10.90;;;51.80;2227.20;;;;;;4891863;29;20057;-79
2021/12/26 07:05:00;;;;;;;12.68;9.88;;;51.70;2227.20;;;;;;4827328;29;20023;-79
2021/12/26 07:07:26;;;;;;;15.25;11.05;;;51.60;2227.20;;;;;;4850562;29;20130;-76
2021/12/26 07:10:00;;;;;;;14.27;11.50;;;51.60;2227.20;;;;;;4859397;29;20069;-79
2021/12/26 07:12:25;;;;;;;14.57;10.88;;;51.60;2227.20;;;;;;4843734;29;20092;-76
2021/12/26 07:14:52;;;;;;;17.63;11.13;;;51.70;2227.20;;;;;;4851149;29;20177;-77
2021/12/26 07:17:18;;;;;;;19.08;12.48;;;51.70;2227.20;;;;;;4826298;29;20523;-79
2021/12/26 07:19:46;;;;;;;16.75;12.32;;;51.60;2227.20;;;;;;4851605;29;20042;-78
2021/12/26 07:22:19;;;;;;;15.00;12.02;;;51.70;2227.20;;;;;;4852822;23;20035;-78
2021/12/26 07:24:57;;;;;;;11.95;10.20;;;51.70;2227.20;;;;;;4903127;29;20049;-79
2021/12/26 07:27:24;;;;;;;14.30;10.40;;;51.70;2227.20;;;;;;4904840;29;20037;-79
2021/12/26 07:29:54;;;;;;;11.93;9.73;;;77.10;2227.20;;;;;;4882851;29;20049;-79
2021/12/26 07:32:20;;;;;;;14.35;11.00;;;51.70;2227.20;;;;;;4906795;29;20015;-79
2021/12/26 07:34:48;;;;;;;14.52;10.73;;;51.80;2227.20;;;;;;4892856;29;20029;-79
2021/12/26 07:37:13;;;;;;;13.63;11.45;;;51.90;2227.20;;;;;;4900601;29;20084;-79
2021/12/26 07:39:41;;;;;;;12.57;9.63;;;51.90;2227.20;;;;;;4902093;29;20032;-79
2021/12/26 07:42:14;;;;;;;11.07;8.98;;;52.00;2227.20;;;;;;4894937;29;20048;-79
2021/12/26 07:44:50;;;;;;;13.15;9.90;;;52.00;2227.20;;;;;;4880159;29;20085;-78
2021/12/26 07:47:16;;;;;;;11.65;9.30;;;52.00;2227.20;;;;;;4873702;29;20010;-78
2021/12/26 07:49:58;;;;;;;14.75;11.20;;;51.80;2227.20;;;;;;4885312;29;20029;-78
2021/12/26 07:52:42;;;;;;;14.15;10.55;;;51.90;2227.20;;;;;;4874952;29;20026;-78
2021/12/26 07:55:19;;;;;;;14.57;11.20;;;51.90;2227.20;;;;;;4887649;29;20026;-77
2021/12/26 07:58:00;;;;;;;13.55;10.90;;;51.90;2227.20;;;;;;4884188;29;20037;-78
2021/12/26 08:01:14;;;;;;;13.10;10.38;;;51.90;2227.20;;;;;;4878097;29;20124;-79
2021/12/26 08:03:51;;;;;;;12.87;10.20;;;51.80;2227.20;;;;;;4884969;29;20054;-80
2021/12/26 08:07:27;;;;;;;11.63;9.48;;;51.60;2227.20;;;;;;4862620;29;20124;-80
2021/12/26 08:10:46;;;;;;;12.70;9.85;;;51.50;2227.20;;;;;;4881876;29;20021;-78
2021/12/26 08:14:07;;;;;;;12.38;9.32;;;51.50;2227.20;;;;;;4830112;29;20030;-80
2021/12/26 08:17:06;;;;;;;12.63;10.43;;;51.70;2227.20;;;;;;4861770;29;20101;-78
2021/12/26 08:19:47;;;;;;;11.02;9.00;;;51.80;2227.20;;;;;;4858324;29;20030;-78
2021/12/26 08:23:02;;;;;;;12.20;9.70;;;52.00;2227.20;;;;;;4842083;29;20045;-81
2021/12/26 08:25:31;;;;;;;11.98;9.02;;;51.90;2227.20;;;;;;4804095;29;20193;-79
2021/12/26 08:27:59;;;;;;;13.82;10.73;;;52.00;2227.20;;;;;;4802948;29;20040;-78
2021/12/26 08:30:30;;;;;;;17.60;11.38;;;52.10;2227.20;;;;;;4788278;30;20162;-79
2021/12/26 08:33:04;;;;;;;15.38;11.40;;;;;;;;;;4792808;30;20047;-79
2021/12/26 08:35:30;;;;;;;18.38;14.18;;;;;;;;;;4816283;29;20158;-78
2021/12/26 08:37:56;;;;;;;25.38;19.27;;;;;;;;;;4811476;29;20069;-77
2021/12/26 08:40:22;;;;;;;19.88;14.25;;;;;;;;;;4802764;29;20050;-76
2021/12/26 08:42:51;;;;;;;22.23;16.83;;;;;;;;;;4803282;29;20498;-77
2021/12/26 08:45:18;;;;;;;17.73;14.35;;;;;;;;;;4819372;29;20034;-76
2021/12/26 08:47:44;;;;;;;15.95;11.77;;;;;;;;;;4832765;29;20038;-79
2021/12/26 08:50:12;;;;;;;14.07;11.30;;;;;;;;;;4828711;29;20045;-76
2021/12/26 08:52:51;;;;;;;16.48;12.55;;;;;;;;;;4828196;29;20031;-76
2021/12/26 08:55:19;;;;;;;14.95;11.82;;;;;;;;;;4835360;29;20041;-78
2021/12/26 08:57:47;;;;;;;14.80;12.15;;;;;;;;;;4832628;29;20058;-77
2021/12/26 09:00:14;;;;;;;16.95;12.57;;;;;;;;;;4820345;29;20067;-76
2021/12/26 09:02:40;;;;;;;16.08;11.95;;;;;;;;;;4858525;29;20041;-77
2021/12/26 09:05:07;;;;;;;18.17;12.27;;;;;;;;;;4890930;29;20021;-76
2021/12/26 09:07:33;;;;;;;14.63;12.07;;;;;;;;;;4895749;29;20032;-77
2021/12/26 09:10:00;;;;;;;16.83;13.30;;;;;;;;;;4891685;29;20030;-75
2021/12/26 09:12:28;;;;;;;17.35;13.30;;;;;;;;;;4902718;29;20057;-76
2021/12/26 09:14:56;;;;;;;18.27;13.55;;;;;;;;;;4888955;29;20033;-78
2021/12/26 09:17:22;;;;;;;20.48;15.18;;;;;;;;;;4891515;29;20029;-76
2021/12/26 09:19:51;;;;;;;18.15;14.95;;;;;;;;;;4890216;29;20100;-75
2021/12/26 09:22:17;;;;;;;21.40;15.27;;;;;;;;;;4888349;29;20100;-78
2021/12/26 09:24:45;;;;;;;24.73;19.05;;;;;;;;;;4889723;29;20036;-77
2021/12/26 09:29:55;;;;;;;27.70;21.47;;;;;;;;;;4897156;29;20033;-79
2021/12/26 09:32:21;;;;;;;25.58;20.08;;;;;;;;;;4870224;29;20036;-75
2021/12/26 09:34:54;;;;;;;30.35;22.40;;;;;;;;;;4893003;29;20021;-77
2021/12/26 09:37:22;;;;;;;31.15;23.55;;;;;;;;;;4869154;29;20042;-77
2021/12/26 09:39:48;;;;;;;30.75;23.20;;;;;;;;;;4872073;29;20018;-77
2021/12/26 09:42:39;;;;;;;27.92;21.33;;;;;;;;;;4889475;29;20077;-77
2021/12/26 09:45:08;;;;;;;31.17;22.88;;;;;;;;;;4870150;29;20087;-76
2021/12/26 09:47:37;;;;;;;31.30;23.80;;;;;;;;;;4880253;29;20045;-76
2021/12/26 09:50:04;;;;;;;37.58;27.83;;;;;;;;;;4877978;29;20025;-75
2021/12/26 09:52:31;;;;;;;36.67;27.38;;;;;;;;;;4880190;29;20476;-76
2021/12/26 09:54:58;;;;;;;33.72;26.05;;;;;;;;;;4878537;29;20025;-75
2021/12/26 09:57:24;;;;;;;25.85;19.67;;;;;;;;;;4870867;29;20060;-76
2021/12/26 09:59:50;;;;;;;27.63;21.23;;;;;;;;;;4864398;29;20053;-76
2021/12/26 10:02:18;;;;;;;37.72;28.02;;;;;;;;;;4870272;29;20053;-76
2021/12/26 10:04:45;;;;;;;29.58;22.33;;;;;;;;;;4871251;29;20056;-75
2021/12/26 10:07:13;;;;;;;29.30;21.67;;;;;;;;;;4874312;29;20028;-77
2021/12/26 10:09:41;;;;;;;31.33;21.98;;;;;;;;;;4871575;29;20033;-76
2021/12/26 10:12:08;;;;;;;29.65;20.27;;;;;;;;;;4870086;29;20559;-76
2021/12/26 10:14:35;;;;;;;40.80;34.67;;;;;;;;;;4883054;29;20029;-77
2021/12/26 10:17:09;;;;;;;30.42;22.75;;;;;;;;;;4875013;29;20030;-75
2021/12/26 10:19:40;;;;;;;28.60;19.92;;;;;;;;;;4874867;29;20021;-76
2021/12/26 10:22:07;;;;;;;29.05;19.27;;;;;;;;;;4877050;29;20072;-76
2021/12/26 10:24:49;;;;;;;31.10;21.55;;;;;;;;;;4882861;29;20009;-79
2021/12/26 10:27:18;;;;;;;;;;;;;;;;;;4879272;29;20037;-79
2021/12/26 10:29:48;;;;;;;26.27;18.65;;;;;;;;;;4896113;29;20006;-79
2021/12/26 10:32:41;;;;;;;22.27;15.75;;;;;;;;;;4876156;29;20013;-79
2021/12/26 10:35:13;;;;;;;23.48;17.70;;;;;;;;;;4913290;29;20372;-77
2021/12/26 10:37:41;;;;;;;21.42;15.40;;;;;;;;;;4886630;29;20036;-77
2021/12/26 10:40:22;;;;;;;21.67;14.23;;;;;;;;;;4888784;29;20056;-78
2021/12/26 10:42:50;;;;;;;20.15;14.20;;;;;;;;;;4894585;29;20051;-77
2021/12/26 10:45:18;;;;;;;28.85;20.63;;;;;;;;;;4903681;29;20032;-78
2021/12/26 10:47:45;;;;;;;19.70;14.50;;;;;;;;;;4902524;29;20024;-77
2021/12/26 10:50:14;;;;;;;19.33;14.38;;;;;;;;;;4904884;29;20032;-78
2021/12/26 10:52:59;;;;;;;18.10;13.50;;;;;;;;;;4897657;29;20060;-77
2021/12/26 10:55:28;;;;;;;20.10;14.20;;;;;;;;;;4907912;29;20077;-77
2021/12/26 10:57:54;;;;;;;22.88;16.02;;;;;;;;;;4887026;29;20025;-76
2021/12/26 11:03:02;;;;;;;22.67;15.02;;;;;;;;;;4919564;24;20072;-78
2021/12/26 11:06:06;;;;;;;24.73;16.25;;;;;;;;;;4919457;29;20040;-78
2021/12/26 11:11:33;;;;;;;23.13;12.68;;;;;;;;;;4982543;23;20057;-80
2021/12/26 11:14:21;;;;;;;23.42;17.40;;;;;;;;;;4914490;23;20068;-77
2021/12/26 11:16:47;;;;;;;21.98;16.08;;;;;;;;;;4901017;29;20032;-77
2021/12/26 11:19:14;;;;;;;16.50;12.32;;;;;;;;;;4898335;29;20020;-77
2021/12/26 11:21:40;;;;;;;17.60;12.05;;;;;;;;;;4888933;29;20036;-76
2021/12/26 11:24:06;;;;;;;18.40;12.43;;;;;;;;;;4902936;29;20047;-77
2021/12/26 11:26:32;;;;;;;22.63;16.50;;;;;;;;;;4888318;29;20040;-77
2021/12/26 11:28:58;;;;;;;18.88;13.60;;;;;;;;;;4896023;29;20511;-75
2021/12/26 11:31:28;;;;;;;19.45;14.27;;;;;;;;;;4896221;29;20032;-77
2021/12/26 11:34:00;;;;;;;20.67;13.77;;;;;;;;;;4877460;29;20045;-77
2021/12/26 11:36:29;;;;;;;21.40;14.75;;;;;;;;;;4866222;29;20036;-71
2021/12/26 11:38:57;;;;;;;20.33;13.98;;;;;;;;;;4889018;29;20104;-72
2021/12/26 11:41:35;;;;;;;21.17;14.60;;;;;;;;;;4884138;29;20041;-71
2021/12/26 11:44:20;;;;;;;22.80;15.90;;;;;;;;;;4887882;29;20045;-72
2021/12/26 11:46:46;;;;;;;22.35;16.73;;;;;;;;;;4880943;29;20403;-74
2021/12/26 11:49:23;;;;;;;24.35;16.52;;;;;;;;;;4880858;29;20029;-74
2021/12/26 11:51:49;;;;;;;23.75;15.90;;;;;;;;;;4864330;29;20373;-75
2021/12/26 11:54:35;;;;;;;25.00;17.40;;;;;;;;;;4885477;29;20021;-78
2021/12/26 11:57:20;;;;;;;22.95;16.20;;;;;;;;;;4891181;29;20025;-78
2021/12/26 12:00:14;;;;;;;27.80;18.98;;;;;;;;;;4892954;29;20096;-78
2021/12/26 12:02:43;;;;;;;25.67;16.70;;;;;;;;;;4896398;29;20051;-75
2021/12/26 12:05:11;;;;;;;24.45;17.45;;;;;;;;;;4896015;29;20037;-75
2021/12/26 12:08:00;;;;;;;24.48;15.98;;;;;;;;;;4897442;29;20068;-76
2021/12/26 12:10:59;;;;;;;27.73;16.95;;;;;;;;;;4887752;29;20057;-78
2021/12/26 12:13:25;;;;;;;22.13;14.27;;;;;;;;;;4836790;29;20102;-77
2021/12/26 12:15:56;;;;;;;22.63;15.65;;;;;;;;;;4821928;29;20049;-72
2021/12/26 12:18:26;;;;;;;25.23;14.60;;;;;;;;;;4837494;29;20099;-75
2021/12/26 12:21:07;;;;;;;18.25;12.68;;;;;;;;;;4828616;29;20039;-73
2021/12/26 12:23:34;;;;;;;22.10;13.15;;;;;;;;;;4829484;29;20039;-75
2021/12/26 12:26:00;;;;;;;20.92;13.48;;;;;;;;;;4818114;29;20061;-77
2021/12/26 12:28:30;;;;;;;22.63;14.02;;;;;;;;;;4825136;29;20030;-74
2021/12/26 12:30:56;;;;;;;24.42;13.95;;;;;;;;;;4812401;29;20045;-76
2021/12/26 12:33:25;;;;;;;21.95;14.48;;;;;;;;;;4817451;29;20039;-76
2021/12/26 12:36:17;;;;;;;19.83;14.50;;;;;;;;;;4805538;29;20393;-76
2021/12/26 12:38:44;;;;;;;22.02;13.73;;;;;;;;;;4818314;29;20092;-73
2021/12/26 12:41:32;;;;;;;23.42;16.27;;;;;;;;;;4819512;29;20038;-73
2021/12/26 12:44:03;;;;;;;25.67;16.25;;;;;;;;;;4826142;29;20040;-76
2021/12/26 12:46:29;;;;;;;31.25;19.30;;;;;;;;;;4820119;29;20084;-75
2021/12/26 12:49:07;;;;;;;33.33;21.05;;;;;;;;;;4855158;29;20791;-74
2021/12/26 12:51:39;;;;;;;26.35;18.55;;;;;;;;;;4879605;29;20056;-74
2021/12/26 12:54:25;;;;;;;30.67;19.88;;;;;;;;;;4877169;29;20029;-75
2021/12/26 12:56:52;;;;;;;30.85;19.95;;;;;;;;;;4875998;29;20067;-75
2021/12/26 12:59:20;;;;;;;30.05;18.42;;;;;;;;;;4882823;29;20052;-75
2021/12/26 13:01:48;;;;;;;29.23;18.88;;;;;;;;;;4874940;29;20028;-75
2021/12/26 13:04:15;;;;;;;30.98;20.50;;;;;;;;;;4878032;29;20032;-77
2021/12/26 13:07:06;;;;;;;28.48;18.40;;;;;;;;;;4892543;29;20056;-76
2021/12/26 13:09:34;;;;;;;25.13;18.15;;;;;;;;;;4893110;29;20398;-75
2021/12/26 13:12:04;;;;;;;22.88;15.50;;;;;;;;;;4886527;29;20092;-77
2021/12/26 13:14:43;;;;;;;24.98;15.38;;;;;;;;;;4885693;29;20073;-75
2021/12/26 13:17:15;;;;;;;25.00;15.82;;;;;;;;;;4891080;29;20039;-75
2021/12/26 13:19:42;;;;;;;25.63;14.65;;;;;;;;;;4895793;29;20029;-75
2021/12/26 13:22:08;;;;;;;21.30;14.80;;;;;;;;;;4876208;29;20056;-76
2021/12/26 13:24:38;;;;;;;20.17;14.00;;;;;;;;;;4866349;29;20048;-76
2021/12/26 13:27:05;;;;;;;19.55;14.38;;;;;;;;;;4878756;29;20033;-76
2021/12/26 13:29:32;;;;;;;23.17;15.13;;;;;;;;;;4881097;29;20040;-75
2021/12/26 13:31:58;;;;;;;25.90;16.60;;;;;;;;;;4888557;29;20029;-71
2021/12/26 13:34:24;;;;;;;22.65;15.18;;;;;;;;;;4891989;29;20037;-74
2021/12/26 13:36:51;;;;;;;20.45;15.18;;;;;;;;;;4880492;29;20475;-72
2021/12/26 13:39:26;;;;;;;22.23;13.90;;;;;;;;;;4896417;29;20084;-75
2021/12/26 13:41:54;;;;;;;26.38;15.95;;;;;;;;;;4889221;29;20033;-76
2021/12/26 13:44:21;;;;;;;32.58;22.35;;;;;;;;;;4872897;29;20579;-75
2021/12/26 13:52:03;;;;;;;21.98;14.57;;;;;;;;;;5205619;23;20056;-77
2021/12/26 13:54:37;;;;;;;20.55;13.85;;;;;;;;;;4862889;29;20043;-74
2021/12/26 13:57:06;;;;;;;26.45;14.77;;;;;;;;;;4884495;29;20041;-76
2021/12/26 13:59:35;;;;;;;24.13;15.70;;;;;;;;;;4868660;29;20104;-77
2021/12/26 14:02:02;;;;;;;23.63;13.73;;;;;;;;;;4865828;29;20037;-77
2021/12/26 14:04:30;;;;;;;24.25;12.68;;;;;;;;;;4888118;29;20391;-77
2021/12/26 14:06:57;;;;;;;21.27;13.15;;;;;;;;;;4870481;29;20048;-77
2021/12/26 14:09:25;;;;;;;23.05;13.05;;;;;;;;;;4867528;29;20025;-77
2021/12/26 14:11:52;;;;;;;23.15;14.02;;;;;;;;;;4884161;29;20028;-78
2021/12/26 14:14:25;;;;;;;26.98;15.63;;;;;;;;;;4884249;29;20025;-77
2021/12/26 14:16:51;;;;;;;26.20;14.63;;;;;;;;;;4889982;29;20009;-77
2021/12/26 14:19:17;;;;;;;29.70;14.80;;;;;;;;;;4899270;29;20033;-78
2021/12/26 14:22:04;;;;;;;27.98;18.00;;;;;;;;;;4884422;29;20054;-75
2021/12/26 14:24:37;;;;;;;33.35;19.52;;;;;;;;;;4892580;29;20026;-79
2021/12/26 14:27:15;;;;;;;26.05;17.00;;;;;;;;;;4893533;29;20051;-76
2021/12/26 14:29:45;;;;;;;31.15;16.88;;;;;;;;;;4877965;29;20041;-78
2021/12/26 14:32:17;;;;;;;27.83;18.15;;;;;;;;;;4896680;29;20009;-72
2021/12/26 14:34:49;;;;;;;31.77;16.73;;;;;;;;;;4879464;29;20032;-78
2021/12/26 14:37:24;;;;;;;26.23;16.48;;;;;;;;;;4882698;29;20037;-79
2021/12/26 14:39:55;;;;;;;28.42;18.17;;;;;;;;;;5042455;23;20037;-78
2021/12/26 14:42:46;;;;;;;42.67;20.80;;;;;;;;;;4907661;29;20044;-79
2021/12/26 14:48:00;;;;;;;42.40;21.77;;;;;;;;;;5227352;23;20044;-74
2021/12/26 14:50:30;;;;;;;38.97;23.17;;;;;;;;;;4886974;29;20063;-74